Sisseton, SD

9:46 AM CST on February 14, 2016 (GMT -0600)
Sisseton | | Change Station
CLOSE
Current Station
Airport
Location: Sisseton,
Elevation: 1161 ft
Nearby Weather Stations

Elev 1161 ft 45.67 °N, 96.99 °W | Updated 50 minutes ago

Overcast
Overcast
13 °F
Feels Like -3 °F
N
15
Wind Variable Wind from South
Gusts 19 mph

Today
High -- | Low -- °F
--% Chance of Precip.
Yesterday
High -- | Low -- °F
Precip. -- in
Pressure 29.98 in
Visibility -9999.0 miles
Clouds
Windchill -3 °F
Dew Point 10 °F
Humidity 88%
Rainfall 0.20 in
Snow Depth Not available.
7:32 AM 5:52 PM
Waxing Crescent, 43% visible
METAR K8D3 141456Z AUTO 18013KT M11/M12 A2986 RMK AO1 SLP151 P0001 60003 T11061122 56011
Pressure 29.98 in
Visibility -9999.0 miles
Clouds
Windchill -3 °F
Dew Point 10 °F
Humidity 88%
Rainfall 0.20 in
Snow Depth Not available.
7:32 AM 5:52 PM
Waxing Crescent, 43% visible
METAR K8D3 141456Z AUTO 18013KT M11/M12 A2986 RMK AO1 SLP151 P0001 60003 T11061122 56011

10-Day Weather Forecast

Almanac

Astronomy

Feb. 14, 2016 Rise Set
Actual Time
Civil Twilight
Nautical Twilight
Astronomical Twilight
Moon
Length of Visible Light
Length of Day
Tomorrow will be .
, % of the Moon is Illuminated

Today's Extremes

State Highs State Lows

Community

WunderPhotos

Upload Photos

1,892,802 photos uploaded!

WunderBlog® & News

Nearby

Air Quality

  Air Quality AQ Index Pollutant
Not available.

Snow Depth

Station Depth Elevation

Earthquake Activity

City Distance Mag. Time & Date
Minimum magnitude displayed is 2.5.

Coastal Water Temperatures

Place Temperature

Stations

Nearby Weather Stations

Station Location Temp. Windchill Dew Point Humidity Wind Precip. Elev Updated Type
                   

Watches & Warnings

There are currently no watches in effect.